Wrington, United Kingdom
Current Conditions -  °F | °C
As of 11:50 AM on Thursday 29 Jan 2015 (Local Time) from EGGD Reporting Station
Rain Showers Rain Showers  
Wind Chill: 28°   Ceiling: Unl
Heat Index: 37°   Visibility: 6mi
Dew Point: 34°   Wind: 16mph
Humidity: 87%   Direction: 250°WSW
Pressure: 29.06"   Gusts: NA
Location:  51.36°N, 2.76°W
Report Text: EGGD 291150Z 25014KT 9999 VCSH SCT024 FEW026TCU SCT028 03/01 Q0984
Loading
Personal Weather Stations






























Interactive Weather Map New forecast layout! Learn more

10-Day Weather Forecast

Advertisements
Track Severe Weather on mobile